createdAt,value
2023-03-26T00:01:26.176Z,2.70
2023-03-26T00:04:25.925Z,1.67
2023-03-26T00:07:14.375Z,4.10
2023-03-26T00:09:54.959Z,2.60
2023-03-26T00:12:43.172Z,2.22
2023-03-26T00:15:25.925Z,2.00
2023-03-26T00:18:15.900Z,2.67
2023-03-26T00:20:57.148Z,2.67
2023-03-26T00:23:44.896Z,2.33
2023-03-26T00:26:26.134Z,2.40
2023-03-26T00:29:17.028Z,2.10
2023-03-26T00:32:00.212Z,2.33
2023-03-26T00:34:48.932Z,2.95
2023-03-26T00:37:33.877Z,2.67
2023-03-26T00:40:21.900Z,2.25
2023-03-26T00:43:10.200Z,1.48
2023-03-26T00:46:00.937Z,0.98
2023-03-26T00:48:50.928Z,1.13
2023-03-26T00:51:34.061Z,1.38
2023-03-26T00:54:22.878Z,1.25
2023-03-26T00:57:12.901Z,0.82
2023-03-26T00:59:55.905Z,1.60
2023-03-26T01:02:45.277Z,1.48
2023-03-26T01:05:50.896Z,1.13
2023-03-26T01:08:43.101Z,1.15
2023-03-26T01:11:40.827Z,1.10
2023-03-26T01:14:31.086Z,1.98
2023-03-26T01:17:14.890Z,2.20
2023-03-26T01:20:12.834Z,1.10
2023-03-26T01:22:59.368Z,1.73
2023-03-26T01:25:55.996Z,1.90
2023-03-26T01:28:43.025Z,2.70
2023-03-26T01:31:37.823Z,1.25
2023-03-26T01:34:30.732Z,1.75
2023-03-26T01:37:27.811Z,2.08
2023-03-26T01:40:13.245Z,1.38
2023-03-26T01:43:12.806Z,1.88
2023-03-26T01:45:57.116Z,1.40
2023-03-26T01:48:47.818Z,1.17
2023-03-26T01:51:44.741Z,1.20
2023-03-26T01:54:30.500Z,0.80
2023-03-26T01:57:24.739Z,1.10
2023-03-26T02:00:29.005Z,0.73
2023-03-26T02:03:24.894Z,1.45
2023-03-26T02:06:18.374Z,1.77
2023-03-26T02:09:01.769Z,1.50
2023-03-26T02:11:53.025Z,1.08
2023-03-26T02:14:36.712Z,1.23
2023-03-26T02:17:36.765Z,1.50
2023-03-26T02:20:20.230Z,1.25
2023-03-26T02:23:07.737Z,1.52
2023-03-26T02:25:56.089Z,1.90
2023-03-26T02:28:37.697Z,1.63
2023-03-26T02:31:26.549Z,1.27
2023-03-26T02:34:10.168Z,1.27
2023-03-26T02:36:59.198Z,1.20
2023-03-26T02:39:47.700Z,1.48
2023-03-26T02:42:36.546Z,0.77
2023-03-26T02:45:24.685Z,3.78
2023-03-26T02:48:18.655Z,24.83
2023-03-26T02:51:06.820Z,38.10
2023-03-26T02:54:17.665Z,10.02
2023-03-26T02:57:01.961Z,6.28
2023-03-26T02:59:53.695Z,6.13
2023-03-26T03:02:48.284Z,2.85
2023-03-26T03:05:49.730Z,4.32
2023-03-26T03:09:01.674Z,2.38
2023-03-26T03:11:56.657Z,3.35
2023-03-26T03:14:45.657Z,2.47
2023-03-26T03:17:26.957Z,1.65
2023-03-26T03:20:17.602Z,2.13
2023-03-26T03:22:59.872Z,3.40
2023-03-26T03:25:49.620Z,2.13
2023-03-26T03:28:31.910Z,1.83
2023-03-26T03:31:19.710Z,1.90
2023-03-26T03:34:04.825Z,2.20
2023-03-26T03:36:58.616Z,2.45
2023-03-26T03:39:54.584Z,2.13
2023-03-26T03:42:46.782Z,2.67
2023-03-26T03:45:37.610Z,2.50
2023-03-26T03:48:52.855Z,2.20
2023-03-26T03:51:46.590Z,1.70
2023-03-26T03:54:35.403Z,2.83
2023-03-26T03:57:34.616Z,1.67
2023-03-26T04:00:30.556Z,0.93
2023-03-26T04:03:33.845Z,0.90
2023-03-26T04:06:27.531Z,1.63
2023-03-26T04:09:10.343Z,0.93
2023-03-26T04:12:00.562Z,0.82
2023-03-26T04:14:51.766Z,0.93
2023-03-26T04:17:48.570Z,0.57
2023-03-26T04:20:32.199Z,0.80
2023-03-26T04:23:20.534Z,0.73
2023-03-26T04:26:17.556Z,1.17
2023-03-26T04:29:13.840Z,0.80
2023-03-26T04:32:05.539Z,1.45
2023-03-26T04:34:55.765Z,0.57
2023-03-26T04:37:41.548Z,1.92
2023-03-26T04:40:30.631Z,1.88
2023-03-26T04:43:32.581Z,1.23
2023-03-26T04:46:50.568Z,0.30
2023-03-26T04:49:41.449Z,0.82
2023-03-26T04:52:32.514Z,1.40
2023-03-26T04:55:37.761Z,1.27
2023-03-26T04:58:36.488Z,1.27
2023-03-26T05:01:18.906Z,1.02
2023-03-26T05:04:07.490Z,0.98
2023-03-26T05:06:49.775Z,0.75
2023-03-26T05:09:48.455Z,0.80
2023-03-26T05:12:44.423Z,0.93
2023-03-26T05:15:33.468Z,1.13
2023-03-26T05:18:42.462Z,1.00
2023-03-26T05:21:30.658Z,0.82
2023-03-26T05:24:12.427Z,0.57
2023-03-26T05:27:02.705Z,2.28
2023-03-26T05:29:50.480Z,0.95
2023-03-26T05:32:38.719Z,1.27
2023-03-26T05:35:22.455Z,1.20
2023-03-26T05:38:10.874Z,1.55
2023-03-26T05:40:51.405Z,1.38
2023-03-26T05:43:48.378Z,1.45
2023-03-26T05:46:40.752Z,2.13
2023-03-26T05:49:28.619Z,1.08
2023-03-26T05:52:19.104Z,0.47
2023-03-26T05:55:20.458Z,1.20
2023-03-26T05:58:20.141Z,0.63
2023-03-26T06:01:29.400Z,0.75
2023-03-26T06:04:38.520Z,0.17
2023-03-26T06:07:51.735Z,0.73
2023-03-26T06:10:46.346Z,0.88
2023-03-26T06:13:41.323Z,0.38
2023-03-26T06:16:31.400Z,0.55
2023-03-26T06:19:21.588Z,0.38
2023-03-26T06:22:13.465Z,1.30
2023-03-26T06:25:13.543Z,0.82
2023-03-26T06:28:22.337Z,1.23
2023-03-26T06:31:20.403Z,1.08
2023-03-26T06:34:12.578Z,0.65
2023-03-26T06:37:00.294Z,1.27
2023-03-26T06:39:49.572Z,1.40
2023-03-26T06:43:09.915Z,0.60
2023-03-26T06:46:10.597Z,0.85
2023-03-26T06:49:17.281Z,0.77
2023-03-26T06:52:28.332Z,0.82
2023-03-26T06:55:32.559Z,0.85
2023-03-26T06:58:29.276Z,1.42
2023-03-26T07:01:29.541Z,0.90
2023-03-26T07:04:36.287Z,1.23
2023-03-26T07:07:46.503Z,1.45
2023-03-26T07:10:48.012Z,3.50
2023-03-26T07:14:03.252Z,0.75
2023-03-26T07:17:23.219Z,1.42
2023-03-26T07:20:27.282Z,1.35
2023-03-26T07:23:20.633Z,1.35
2023-03-26T07:26:31.321Z,1.20
2023-03-26T07:29:40.264Z,1.23
2023-03-26T07:32:49.529Z,1.48
2023-03-26T07:36:03.209Z,1.00
2023-03-26T07:39:28.095Z,1.35
2023-03-26T07:42:58.216Z,1.50
2023-03-26T07:46:05.739Z,1.08
2023-03-26T07:48:58.185Z,1.17
2023-03-26T07:52:01.399Z,1.33
2023-03-26T07:55:31.212Z,0.90
2023-03-26T07:58:57.301Z,2.60
2023-03-26T08:02:26.498Z,0.90
2023-03-26T08:05:33.248Z,1.33
2023-03-26T08:08:50.491Z,1.20
2023-03-26T08:12:09.200Z,1.05
2023-03-26T08:14:59.369Z,1.58
2023-03-26T08:17:52.200Z,1.33
2023-03-26T08:20:48.412Z,0.93
2023-03-26T08:23:50.702Z,1.48
2023-03-26T08:26:41.536Z,1.67
2023-03-26T08:29:42.166Z,0.73
2023-03-26T08:32:33.200Z,0.88
2023-03-26T08:35:23.409Z,0.90
2023-03-26T08:38:04.147Z,1.15
2023-03-26T08:41:47.346Z,1.13
2023-03-26T08:45:13.149Z,1.03
2023-03-26T08:48:46.113Z,0.82
2023-03-26T08:51:59.439Z,1.08
2023-03-26T08:55:26.143Z,1.15
2023-03-26T08:58:37.039Z,0.47
2023-03-26T09:02:03.452Z,0.50
2023-03-26T09:05:18.190Z,1.13
2023-03-26T09:08:59.136Z,0.57
2023-03-26T09:12:46.022Z,0.80
2023-03-26T09:16:12.143Z,0.93
2023-03-26T09:19:43.109Z,0.70
2023-03-26T09:23:03.330Z,0.88
2023-03-26T09:26:12.077Z,1.15
2023-03-26T09:29:48.270Z,0.73
2023-03-26T09:33:06.084Z,0.77
2023-03-26T09:36:32.213Z,0.85
2023-03-26T09:39:24.415Z,0.50
2023-03-26T09:42:31.121Z,1.02
2023-03-26T09:46:00.325Z,0.80
2023-03-26T09:49:10.035Z,0.80
2023-03-26T09:52:32.010Z,0.82
2023-03-26T09:55:38.672Z,0.95
2023-03-26T09:58:56.024Z,1.20
2023-03-26T10:01:47.346Z,1.25
2023-03-26T10:05:11.019Z,0.85
2023-03-26T10:08:16.036Z,0.70
2023-03-26T10:11:04.594Z,0.82
2023-03-26T10:14:07.016Z,0.98
2023-03-26T10:17:07.198Z,0.93
2023-03-26T10:20:05.994Z,1.30
2023-03-26T10:23:04.248Z,1.20
2023-03-26T10:26:00.964Z,1.08
2023-03-26T10:29:02.383Z,0.65
2023-03-26T10:31:49.980Z,1.17
2023-03-26T10:35:04.990Z,0.88
2023-03-26T10:38:09.159Z,1.58
2023-03-26T10:41:02.993Z,1.05
2023-03-26T10:44:07.843Z,0.77
2023-03-26T10:47:14.972Z,1.23
2023-03-26T10:50:28.178Z,0.70
2023-03-26T10:53:16.976Z,1.23
2023-03-26T10:56:14.034Z,1.42
2023-03-26T10:58:56.967Z,1.58
2023-03-26T11:01:51.360Z,1.25
2023-03-26T11:04:41.923Z,1.23
2023-03-26T11:07:36.912Z,0.80
2023-03-26T11:10:28.123Z,2.03
2023-03-26T11:13:38.970Z,1.55
2023-03-26T11:19:24.936Z,1.20
2023-03-26T11:22:25.176Z,1.58
2023-03-26T11:25:38.881Z,0.95
2023-03-26T11:29:03.366Z,0.77
2023-03-26T11:32:02.422Z,1.30
2023-03-26T11:34:53.856Z,1.15
2023-03-26T11:37:49.086Z,1.10
2023-03-26T11:40:36.870Z,1.10
2023-03-26T11:43:31.393Z,1.60
2023-03-26T11:46:24.995Z,1.05
2023-03-26T11:49:18.058Z,0.90
2023-03-26T11:51:59.849Z,1.42
2023-03-26T11:54:49.857Z,0.70
2023-03-26T11:57:36.168Z,0.75
2023-03-26T12:00:27.834Z,0.60
2023-03-26T12:03:12.072Z,1.15
2023-03-26T12:06:08.863Z,1.13
2023-03-26T12:08:51.077Z,1.08
2023-03-26T12:11:41.845Z,0.90
2023-03-26T12:14:33.054Z,1.00
2023-03-26T12:17:16.885Z,1.00
2023-03-26T12:20:13.833Z,1.00
2023-03-26T12:22:59.544Z,1.30
2023-03-26T12:25:49.790Z,1.05
2023-03-26T12:28:41.431Z,0.95
2023-03-26T12:31:25.846Z,1.17
2023-03-26T12:34:21.205Z,0.93
2023-03-26T12:37:03.836Z,1.55
2023-03-26T12:40:09.517Z,0.95
2023-03-26T12:44:54.655Z,0.77
2023-03-26T12:47:55.511Z,1.15
2023-03-26T12:49:12.043Z,0.90
2023-03-26T12:52:03.963Z,1.48
2023-03-26T12:54:57.940Z,0.75
2023-03-26T12:57:53.796Z,0.65
2023-03-26T13:00:44.986Z,1.95
2023-03-26T13:03:49.689Z,0.70
2023-03-26T13:06:59.721Z,1.08
2023-03-26T13:10:33.764Z,1.20
2023-03-26T13:14:17.712Z,1.48
2023-03-26T13:17:13.041Z,0.80
2023-03-26T13:20:04.702Z,1.15
2023-03-26T13:23:10.871Z,1.23
2023-03-26T13:26:08.998Z,0.93
2023-03-26T13:29:01.707Z,1.27
2023-03-26T13:31:49.276Z,1.25
2023-03-26T13:34:44.675Z,1.33
2023-03-26T13:37:35.795Z,1.58
2023-03-26T13:40:35.711Z,1.00
2023-03-26T13:43:33.921Z,1.05
2023-03-26T13:46:26.769Z,1.95
2023-03-26T13:49:20.028Z,1.52
2023-03-26T13:52:06.681Z,1.27
2023-03-26T13:54:59.922Z,1.42
2023-03-26T13:57:46.731Z,0.50
2023-03-26T14:00:41.989Z,1.42
2023-03-26T14:03:32.670Z,1.02
2023-03-26T14:06:48.676Z,0.82
2023-03-26T14:09:38.304Z,1.85
2023-03-26T14:12:43.666Z,0.63
2023-03-26T14:15:38.966Z,1.60
2023-03-26T14:18:35.670Z,1.00
2023-03-26T14:21:57.006Z,1.02
2023-03-26T14:24:59.598Z,1.20
2023-03-26T14:28:05.648Z,0.77
2023-03-26T14:31:21.378Z,0.88
2023-03-26T14:34:35.678Z,1.17
2023-03-26T14:37:57.502Z,0.95
2023-03-26T14:40:58.794Z,1.45
2023-03-26T14:44:11.634Z,1.10
2023-03-26T14:47:16.070Z,1.02
2023-03-26T14:50:42.644Z,0.80
2023-03-26T14:53:41.421Z,0.70
2023-03-26T14:56:48.660Z,0.82
2023-03-26T15:00:08.639Z,1.45
2023-03-26T15:03:22.807Z,1.02
2023-03-26T15:06:34.555Z,1.30
2023-03-26T15:10:06.124Z,0.95
2023-03-26T15:13:26.558Z,0.75
2023-03-26T15:16:53.579Z,1.63
2023-03-26T15:20:14.816Z,0.60
2023-03-26T15:23:24.562Z,1.15
2023-03-26T15:27:02.130Z,1.30
2023-03-26T15:30:41.584Z,1.25
2023-03-26T15:33:59.515Z,1.65
2023-03-26T15:37:34.357Z,1.67
2023-03-26T15:40:44.540Z,0.95
2023-03-26T15:43:28.770Z,1.13
2023-03-26T15:46:38.533Z,1.00
2023-03-26T15:49:31.613Z,1.50
2023-03-26T15:52:32.765Z,1.95
2023-03-26T15:55:29.465Z,0.85
2023-03-26T15:58:25.751Z,0.82
2023-03-26T16:01:25.549Z,1.20
2023-03-26T16:04:29.707Z,0.57
2023-03-26T16:07:18.486Z,0.60
2023-03-26T16:10:21.739Z,0.77
2023-03-26T16:16:39.430Z,0.77
2023-03-26T16:19:42.216Z,0.90
2023-03-26T16:25:38.741Z,1.55
2023-03-26T16:28:39.406Z,0.98
2023-03-26T16:31:38.239Z,0.73
2023-03-26T16:34:38.460Z,0.85
2023-03-26T16:37:57.506Z,0.70
2023-03-26T16:41:00.381Z,1.25
2023-03-26T16:46:56.668Z,0.95
2023-03-26T16:50:08.578Z,1.15
2023-03-26T16:53:04.651Z,1.15
2023-03-26T16:55:53.364Z,1.73
2023-03-26T16:58:55.118Z,1.35
2023-03-26T17:01:43.485Z,1.17
2023-03-26T17:04:40.083Z,1.00
2023-03-26T17:07:27.468Z,0.75
2023-03-26T17:10:30.826Z,0.90
2023-03-26T17:16:27.474Z,0.60
2023-03-26T17:19:18.601Z,1.60
2023-03-26T17:22:13.375Z,0.75
2023-03-26T17:25:08.602Z,1.00
2023-03-26T17:28:30.367Z,0.88
2023-03-26T17:31:19.649Z,0.68
2023-03-26T17:34:43.465Z,0.80
2023-03-26T17:37:58.422Z,1.05
2023-03-26T17:40:54.858Z,0.55
2023-03-26T17:44:00.376Z,1.20
2023-03-26T17:46:51.637Z,0.73
2023-03-26T17:49:37.448Z,1.20
2023-03-26T17:52:29.546Z,1.17
2023-03-26T17:55:16.329Z,1.33
2023-03-26T17:58:06.937Z,1.98
2023-03-26T18:00:50.705Z,1.70
2023-03-26T18:03:44.185Z,1.05
2023-03-26T18:06:41.355Z,1.33
2023-03-26T18:09:45.442Z,1.20
2023-03-26T18:12:59.525Z,0.88
2023-03-26T18:16:09.561Z,0.50
2023-03-26T18:18:57.307Z,0.80
2023-03-26T18:21:48.334Z,0.98
2023-03-26T18:24:33.543Z,1.30
2023-03-26T18:27:24.318Z,1.08
2023-03-26T18:30:10.554Z,1.30
2023-03-26T18:33:04.334Z,1.17
2023-03-26T18:35:56.344Z,1.30
2023-03-26T18:38:40.609Z,1.20
2023-03-26T18:41:38.394Z,1.40
2023-03-26T18:44:27.548Z,1.00
2023-03-26T18:47:13.253Z,0.90
2023-03-26T18:50:04.840Z,1.23
2023-03-26T18:52:46.282Z,0.90
2023-03-26T18:55:39.625Z,1.10
2023-03-26T18:58:32.282Z,1.02
2023-03-26T19:01:25.972Z,1.23
2023-03-26T19:04:12.312Z,0.90
2023-03-26T19:07:01.296Z,0.63
2023-03-26T19:09:43.497Z,1.02
2023-03-26T19:12:39.209Z,1.02
2023-03-26T19:15:28.483Z,1.45
2023-03-26T19:18:16.142Z,2.03
2023-03-26T19:21:08.477Z,1.52
2023-03-26T19:23:50.600Z,1.20
2023-03-26T19:26:38.704Z,2.20
2023-03-26T19:29:23.125Z,2.35
2023-03-26T19:32:13.263Z,2.13
2023-03-26T19:34:56.441Z,2.40
2023-03-26T19:37:58.214Z,3.03
2023-03-26T19:40:41.513Z,3.10
2023-03-26T19:43:30.288Z,3.30
2023-03-26T19:46:12.567Z,3.55
2023-03-26T19:49:03.633Z,3.13
2023-03-26T19:51:46.185Z,3.85
2023-03-26T19:54:37.124Z,4.18
2023-03-26T19:57:18.722Z,2.90
2023-03-26T20:00:07.313Z,3.03
2023-03-26T20:02:48.905Z,2.58
2023-03-26T20:05:41.187Z,2.65
2023-03-26T20:08:27.557Z,4.23
2023-03-26T20:11:24.112Z,2.00
2023-03-26T20:14:31.271Z,1.70
2023-03-26T20:17:22.410Z,3.15
2023-03-26T20:20:04.192Z,2.17
2023-03-26T20:22:53.873Z,2.33
2023-03-26T20:25:40.103Z,2.40
2023-03-26T20:28:38.718Z,2.13
2023-03-26T20:31:31.068Z,2.20
2023-03-26T20:34:25.124Z,2.33
2023-03-26T20:37:07.072Z,1.90
2023-03-26T20:39:55.173Z,2.40
2023-03-26T20:42:36.664Z,5.57
2023-03-26T20:45:29.205Z,2.08
2023-03-26T20:48:12.031Z,2.15
2023-03-26T20:51:01.136Z,1.58
2023-03-26T20:53:46.214Z,1.88
2023-03-26T20:56:35.325Z,1.20
2023-03-26T20:59:19.008Z,1.95
2023-03-26T21:02:09.146Z,2.20
2023-03-26T21:04:58.043Z,1.90
2023-03-26T21:07:46.458Z,1.90
2023-03-26T21:10:33.082Z,2.53
2023-03-26T21:13:47.000Z,1.92
2023-03-26T21:16:36.209Z,1.67
2023-03-26T21:19:22.325Z,1.63
2023-03-26T21:22:19.985Z,2.30
2023-03-26T21:25:18.954Z,1.50
2023-03-26T21:28:31.962Z,2.03
2023-03-26T21:31:31.038Z,1.60
2023-03-26T21:34:22.338Z,1.73
2023-03-26T21:37:04.025Z,1.52
2023-03-26T21:39:52.681Z,1.50
2023-03-26T21:42:35.990Z,1.48
2023-03-26T21:45:32.257Z,2.67
2023-03-26T21:48:14.560Z,1.33
2023-03-26T21:51:09.222Z,1.52
2023-03-26T21:53:58.138Z,2.17
2023-03-26T21:56:52.998Z,2.88
2023-03-26T21:59:49.933Z,2.35
2023-03-26T22:02:39.951Z,1.80
2023-03-26T22:05:33.347Z,2.17
2023-03-26T22:08:27.924Z,1.90
2023-03-26T22:11:18.006Z,1.15
2023-03-26T22:14:13.124Z,1.85
2023-03-26T22:17:01.006Z,1.60
2023-03-26T22:19:42.254Z,1.40
2023-03-26T22:22:32.935Z,1.65
2023-03-26T22:25:17.838Z,1.77
2023-03-26T22:28:05.911Z,1.83
2023-03-26T22:30:47.538Z,1.65
2023-03-26T22:33:35.949Z,1.23
2023-03-26T22:36:25.905Z,1.30
2023-03-26T22:39:08.385Z,1.60
2023-03-26T22:41:57.839Z,0.80
2023-03-26T22:44:46.076Z,1.45
2023-03-26T22:47:27.898Z,1.38
2023-03-26T22:50:17.043Z,1.65
2023-03-26T22:52:58.019Z,1.25
2023-03-26T22:55:46.910Z,1.50
2023-03-26T22:58:29.928Z,1.55
2023-03-26T23:01:20.098Z,1.35
2023-03-26T23:04:01.942Z,1.88
2023-03-26T23:06:56.816Z,0.93
2023-03-26T23:09:45.771Z,1.45
2023-03-26T23:12:27.902Z,2.38
2023-03-26T23:15:20.722Z,1.83
2023-03-26T23:18:02.834Z,2.58
2023-03-26T23:20:57.229Z,2.10
2023-03-26T23:23:40.878Z,1.50
2023-03-26T23:26:34.999Z,2.00
2023-03-26T23:29:20.808Z,2.20
2023-03-26T23:32:24.176Z,2.50
2023-03-26T23:35:07.655Z,2.65
2023-03-26T23:37:57.755Z,3.78
2023-03-26T23:40:46.039Z,2.58
2023-03-26T23:43:38.767Z,2.75
2023-03-26T23:46:42.780Z,2.45
2023-03-26T23:49:25.734Z,2.60
2023-03-26T23:52:13.959Z,2.38
2023-03-26T23:54:55.926Z,2.88
2023-03-26T23:57:50.981Z,2.25
